sensor_id;sensor_type;location;lat;lon;timestamp;temperature;humidity
65584;DHT22;62116;43.582;1.470;2023-04-25T00:00:20;14.77;89.72
65584;DHT22;62116;43.582;1.470;2023-04-25T00:02:45;14.81;89.73
65584;DHT22;62116;43.582;1.470;2023-04-25T00:05:12;14.76;89.77
65584;DHT22;62116;43.582;1.470;2023-04-25T00:07:37;14.80;89.88
65584;DHT22;62116;43.582;1.470;2023-04-25T00:10:03;14.79;89.91
65584;DHT22;62116;43.582;1.470;2023-04-25T00:12:29;14.83;89.91
65584;DHT22;62116;43.582;1.470;2023-04-25T00:14:54;14.80;89.85
65584;DHT22;62116;43.582;1.470;2023-04-25T00:17:22;14.80;89.97
65584;DHT22;62116;43.582;1.470;2023-04-25T00:19:50;14.80;89.98
65584;DHT22;62116;43.582;1.470;2023-04-25T00:22:15;14.83;90.04
65584;DHT22;62116;43.582;1.470;2023-04-25T00:24:41;14.80;90.09
65584;DHT22;62116;43.582;1.470;2023-04-25T00:27:07;14.76;90.16
65584;DHT22;62116;43.582;1.470;2023-04-25T00:29:33;14.77;90.24
65584;DHT22;62116;43.582;1.470;2023-04-25T00:31:58;14.79;90.30
65584;DHT22;62116;43.582;1.470;2023-04-25T00:34:23;14.79;90.24
65584;DHT22;62116;43.582;1.470;2023-04-25T00:36:49;14.79;90.33
65584;DHT22;62116;43.582;1.470;2023-04-25T00:39:14;14.76;90.43
65584;DHT22;62116;43.582;1.470;2023-04-25T00:41:40;14.76;90.47
65584;DHT22;62116;43.582;1.470;2023-04-25T00:44:08;14.74;90.54
65584;DHT22;62116;43.582;1.470;2023-04-25T00:46:35;14.74;90.55
65584;DHT22;62116;43.582;1.470;2023-04-25T00:49:00;14.73;90.73
65584;DHT22;62116;43.582;1.470;2023-04-25T00:51:26;14.77;90.82
65584;DHT22;62116;43.582;1.470;2023-04-25T00:53:52;14.80;90.78
65584;DHT22;62116;43.582;1.470;2023-04-25T00:56:17;14.79;90.81
65584;DHT22;62116;43.582;1.470;2023-04-25T00:58:43;14.80;90.85
65584;DHT22;62116;43.582;1.470;2023-04-25T01:01:08;14.81;90.72
65584;DHT22;62116;43.582;1.470;2023-04-25T01:03:38;14.79;90.69
65584;DHT22;62116;43.582;1.470;2023-04-25T01:06:07;14.76;90.94
65584;DHT22;62116;43.582;1.470;2023-04-25T01:08:33;14.76;90.91
65584;DHT22;62116;43.582;1.470;2023-04-25T01:10:59;14.73;90.94
65584;DHT22;62116;43.582;1.470;2023-04-25T01:13:24;14.77;91.04
65584;DHT22;62116;43.582;1.470;2023-04-25T01:15:49;14.77;91.07
65584;DHT22;62116;43.582;1.470;2023-04-25T01:18:15;14.80;91.09
65584;DHT22;62116;43.582;1.470;2023-04-25T01:20:41;14.73;91.09
65584;DHT22;62116;43.582;1.470;2023-04-25T01:23:07;14.76;91.23
65584;DHT22;62116;43.582;1.470;2023-04-25T01:25:33;14.73;91.27
65584;DHT22;62116;43.582;1.470;2023-04-25T01:27:58;14.70;91.43
65584;DHT22;62116;43.582;1.470;2023-04-25T01:30:26;14.69;91.46
65584;DHT22;62116;43.582;1.470;2023-04-25T01:32:53;14.67;91.60
65584;DHT22;62116;43.582;1.470;2023-04-25T01:35:20;14.67;91.67
65584;DHT22;62116;43.582;1.470;2023-04-25T01:37:45;14.63;91.81
65584;DHT22;62116;43.582;1.470;2023-04-25T01:40:12;14.62;91.82
65584;DHT22;62116;43.582;1.470;2023-04-25T01:42:40;14.60;91.83
65584;DHT22;62116;43.582;1.470;2023-04-25T01:45:06;14.56;91.91
65584;DHT22;62116;43.582;1.470;2023-04-25T01:47:32;14.64;91.88
65584;DHT22;62116;43.582;1.470;2023-04-25T01:50:00;14.67;91.70
65584;DHT22;62116;43.582;1.470;2023-04-25T01:52:26;14.64;91.82
65584;DHT22;62116;43.582;1.470;2023-04-25T01:54:51;14.63;91.96
65584;DHT22;62116;43.582;1.470;2023-04-25T01:57:17;14.56;92.05
65584;DHT22;62116;43.582;1.470;2023-04-25T01:59:43;14.62;92.12
65584;DHT22;62116;43.582;1.470;2023-04-25T02:02:08;14.59;92.07
65584;DHT22;62116;43.582;1.470;2023-04-25T02:04:34;14.57;92.01
65584;DHT22;62116;43.582;1.470;2023-04-25T02:06:59;14.57;92.06
65584;DHT22;62116;43.582;1.470;2023-04-25T02:09:25;14.62;92.02
65584;DHT22;62116;43.582;1.470;2023-04-25T02:11:50;14.59;91.89
65584;DHT22;62116;43.582;1.470;2023-04-25T02:14:16;14.62;91.98
65584;DHT22;62116;43.582;1.470;2023-04-25T02:16:41;14.57;91.88
65584;DHT22;62116;43.582;1.470;2023-04-25T02:19:09;14.53;91.99
65584;DHT22;62116;43.582;1.470;2023-04-25T02:21:35;14.56;91.98
65584;DHT22;62116;43.582;1.470;2023-04-25T02:24:01;14.57;92.01
65584;DHT22;62116;43.582;1.470;2023-04-25T02:26:26;14.57;91.94
65584;DHT22;62116;43.582;1.470;2023-04-25T02:28:52;14.53;91.98
65584;DHT22;62116;43.582;1.470;2023-04-25T02:31:17;14.49;92.03
65584;DHT22;62116;43.582;1.470;2023-04-25T02:33:43;14.49;92.22
65584;DHT22;62116;43.582;1.470;2023-04-25T02:36:08;14.50;92.23
65584;DHT22;62116;43.582;1.470;2023-04-25T02:38:34;14.49;92.22
65584;DHT22;62116;43.582;1.470;2023-04-25T02:40:59;14.46;92.25
65584;DHT22;62116;43.582;1.470;2023-04-25T02:43:24;14.42;92.37
65584;DHT22;62116;43.582;1.470;2023-04-25T02:45:50;14.49;92.29
65584;DHT22;62116;43.582;1.470;2023-04-25T02:48:15;14.47;92.21
65584;DHT22;62116;43.582;1.470;2023-04-25T02:50:41;14.47;92.26
65584;DHT22;62116;43.582;1.470;2023-04-25T02:53:06;14.52;92.17
65584;DHT22;62116;43.582;1.470;2023-04-25T02:55:32;14.47;92.10
65584;DHT22;62116;43.582;1.470;2023-04-25T02:57:57;14.47;91.91
65584;DHT22;62116;43.582;1.470;2023-04-25T03:00:22;14.42;91.88
65584;DHT22;62116;43.582;1.470;2023-04-25T03:02:48;14.43;92.15
65584;DHT22;62116;43.582;1.470;2023-04-25T03:05:13;14.46;92.03
65584;DHT22;62116;43.582;1.470;2023-04-25T03:07:39;14.49;91.84
65584;DHT22;62116;43.582;1.470;2023-04-25T03:10:06;14.46;91.72
65584;DHT22;62116;43.582;1.470;2023-04-25T03:12:32;14.46;91.78
65584;DHT22;62116;43.582;1.470;2023-04-25T03:14:57;14.43;91.60
65584;DHT22;62116;43.582;1.470;2023-04-25T03:17:22;14.42;91.62
65584;DHT22;62116;43.582;1.470;2023-04-25T03:19:48;14.43;91.88
65584;DHT22;62116;43.582;1.470;2023-04-25T03:22:13;14.42;91.95
65584;DHT22;62116;43.582;1.470;2023-04-25T03:24:39;14.40;92.01
65584;DHT22;62116;43.582;1.470;2023-04-25T03:27:05;14.47;91.99
65584;DHT22;62116;43.582;1.470;2023-04-25T03:29:30;14.47;91.80
65584;DHT22;62116;43.582;1.470;2023-04-25T03:31:56;14.44;91.94
65584;DHT22;62116;43.582;1.470;2023-04-25T03:34:21;14.49;91.94
65584;DHT22;62116;43.582;1.470;2023-04-25T03:36:49;14.47;91.99
65584;DHT22;62116;43.582;1.470;2023-04-25T03:39:14;14.44;92.06
65584;DHT22;62116;43.582;1.470;2023-04-25T03:41:40;14.44;92.08
65584;DHT22;62116;43.582;1.470;2023-04-25T03:44:06;14.44;92.20
65584;DHT22;62116;43.582;1.470;2023-04-25T03:46:31;14.44;92.21
65584;DHT22;62116;43.582;1.470;2023-04-25T03:48:56;14.42;92.32
65584;DHT22;62116;43.582;1.470;2023-04-25T03:51:22;14.46;92.47
65584;DHT22;62116;43.582;1.470;2023-04-25T03:53:47;14.46;92.35
65584;DHT22;62116;43.582;1.470;2023-04-25T03:56:13;14.50;92.29
65584;DHT22;62116;43.582;1.470;2023-04-25T03:58:38;14.53;92.19
65584;DHT22;62116;43.582;1.470;2023-04-25T04:01:04;14.50;92.14
65584;DHT22;62116;43.582;1.470;2023-04-25T04:03:33;14.50;92.18
65584;DHT22;62116;43.582;1.470;2023-04-25T04:05:59;14.47;92.16
65584;DHT22;62116;43.582;1.470;2023-04-25T04:08:25;14.50;92.13
65584;DHT22;62116;43.582;1.470;2023-04-25T04:10:50;14.49;92.07
65584;DHT22;62116;43.582;1.470;2023-04-25T04:13:15;14.49;92.21
65584;DHT22;62116;43.582;1.470;2023-04-25T04:15:41;14.47;92.24
65584;DHT22;62116;43.582;1.470;2023-04-25T04:18:06;14.49;92.31
65584;DHT22;62116;43.582;1.470;2023-04-25T04:20:31;14.49;92.32
65584;DHT22;62116;43.582;1.470;2023-04-25T04:22:57;14.46;92.40
65584;DHT22;62116;43.582;1.470;2023-04-25T04:25:22;14.44;92.43
65584;DHT22;62116;43.582;1.470;2023-04-25T04:27:49;14.43;92.54
65584;DHT22;62116;43.582;1.470;2023-04-25T04:30:17;14.42;92.68
65584;DHT22;62116;43.582;1.470;2023-04-25T04:32:42;14.46;92.64
65584;DHT22;62116;43.582;1.470;2023-04-25T04:35:08;14.49;92.56
65584;DHT22;62116;43.582;1.470;2023-04-25T04:37:34;14.44;92.57
65584;DHT22;62116;43.582;1.470;2023-04-25T04:39:59;14.46;92.54
65584;DHT22;62116;43.582;1.470;2023-04-25T04:42:24;14.47;92.52
65584;DHT22;62116;43.582;1.470;2023-04-25T04:44:50;14.44;92.43
65584;DHT22;62116;43.582;1.470;2023-04-25T04:47:17;14.43;92.54
65584;DHT22;62116;43.582;1.470;2023-04-25T04:49:42;14.47;92.61
65584;DHT22;62116;43.582;1.470;2023-04-25T04:52:08;14.43;92.58
65584;DHT22;62116;43.582;1.470;2023-04-25T04:54:33;14.46;92.63
65584;DHT22;62116;43.582;1.470;2023-04-25T04:57:00;14.44;92.57
65584;DHT22;62116;43.582;1.470;2023-04-25T04:59:25;14.43;92.59
65584;DHT22;62116;43.582;1.470;2023-04-25T05:01:52;14.44;92.59
65584;DHT22;62116;43.582;1.470;2023-04-25T05:04:17;14.43;92.42
65584;DHT22;62116;43.582;1.470;2023-04-25T05:06:43;14.47;92.26
65584;DHT22;62116;43.582;1.470;2023-04-25T05:09:09;14.46;92.33
65584;DHT22;62116;43.582;1.470;2023-04-25T05:11:34;14.46;92.40
65584;DHT22;62116;43.582;1.470;2023-04-25T05:14:00;14.46;92.32
65584;DHT22;62116;43.582;1.470;2023-04-25T05:16:25;14.52;92.35
65584;DHT22;62116;43.582;1.470;2023-04-25T05:18:51;14.52;92.30
65584;DHT22;62116;43.582;1.470;2023-04-25T05:21:16;14.52;92.34
65584;DHT22;62116;43.582;1.470;2023-04-25T05:23:41;14.52;92.47
65584;DHT22;62116;43.582;1.470;2023-04-25T05:26:07;14.50;92.51
65584;DHT22;62116;43.582;1.470;2023-04-25T05:28:41;14.52;92.48
65584;DHT22;62116;43.582;1.470;2023-04-25T05:31:08;14.49;92.52
65584;DHT22;62116;43.582;1.470;2023-04-25T05:33:35;14.50;92.65
65584;DHT22;62116;43.582;1.470;2023-04-25T05:36:00;14.52;92.71
65584;DHT22;62116;43.582;1.470;2023-04-25T05:38:26;14.52;92.80
65584;DHT22;62116;43.582;1.470;2023-04-25T05:40:51;14.52;92.79
65584;DHT22;62116;43.582;1.470;2023-04-25T05:43:16;14.55;92.76
65584;DHT22;62116;43.582;1.470;2023-04-25T05:45:42;14.55;92.83
65584;DHT22;62116;43.582;1.470;2023-04-25T05:48:07;14.60;92.61
65584;DHT22;62116;43.582;1.470;2023-04-25T05:50:32;14.63;92.59
65584;DHT22;62116;43.582;1.470;2023-04-25T05:52:58;14.69;92.46
65584;DHT22;62116;43.582;1.470;2023-04-25T05:55:23;14.66;92.44
65584;DHT22;62116;43.582;1.470;2023-04-25T05:57:49;14.69;92.56
65584;DHT22;62116;43.582;1.470;2023-04-25T06:00:14;14.67;92.51
65584;DHT22;62116;43.582;1.470;2023-04-25T06:02:41;14.66;92.52
65584;DHT22;62116;43.582;1.470;2023-04-25T06:05:07;14.66;92.51
65584;DHT22;62116;43.582;1.470;2023-04-25T06:07:32;14.72;92.58
65584;DHT22;62116;43.582;1.470;2023-04-25T06:09:58;14.70;92.58
65584;DHT22;62116;43.582;1.470;2023-04-25T06:12:25;14.69;92.49
65584;DHT22;62116;43.582;1.470;2023-04-25T06:14:50;14.74;92.53
65584;DHT22;62116;43.582;1.470;2023-04-25T06:17:15;14.69;92.56
65584;DHT22;62116;43.582;1.470;2023-04-25T06:19:41;14.70;92.44
65584;DHT22;62116;43.582;1.470;2023-04-25T06:22:07;14.72;92.47
65584;DHT22;62116;43.582;1.470;2023-04-25T06:24:32;14.74;92.50
65584;DHT22;62116;43.582;1.470;2023-04-25T06:26:58;14.77;92.42
65584;DHT22;62116;43.582;1.470;2023-04-25T06:29:23;14.79;92.32
65584;DHT22;62116;43.582;1.470;2023-04-25T06:31:48;14.83;92.32
65584;DHT22;62116;43.582;1.470;2023-04-25T06:34:15;14.87;92.25
65584;DHT22;62116;43.582;1.470;2023-04-25T06:36:40;14.90;92.01
65584;DHT22;62116;43.582;1.470;2023-04-25T06:39:07;14.91;91.92
65584;DHT22;62116;43.582;1.470;2023-04-25T06:41:32;15.01;92.02
65584;DHT22;62116;43.582;1.470;2023-04-25T06:43:58;15.03;91.96
65584;DHT22;62116;43.582;1.470;2023-04-25T06:46:23;15.05;91.86
65584;DHT22;62116;43.582;1.470;2023-04-25T06:48:48;15.11;91.72
65584;DHT22;62116;43.582;1.470;2023-04-25T06:51:14;15.12;91.59
65584;DHT22;62116;43.582;1.470;2023-04-25T06:53:40;15.11;91.47
65584;DHT22;62116;43.582;1.470;2023-04-25T06:56:05;15.11;91.49
65584;DHT22;62116;43.582;1.470;2023-04-25T06:58:31;15.11;91.07
65584;DHT22;62116;43.582;1.470;2023-04-25T07:00:56;15.14;91.38
65584;DHT22;62116;43.582;1.470;2023-04-25T07:03:22;15.11;91.39
65584;DHT22;62116;43.582;1.470;2023-04-25T07:05:47;15.17;91.52
65584;DHT22;62116;43.582;1.470;2023-04-25T07:08:13;15.20;91.48
65584;DHT22;62116;43.582;1.470;2023-04-25T07:10:38;15.18;91.35
65584;DHT22;62116;43.582;1.470;2023-04-25T07:13:03;15.20;91.26
65584;DHT22;62116;43.582;1.470;2023-04-25T07:15:29;15.17;91.23
65584;DHT22;62116;43.582;1.470;2023-04-25T07:17:54;15.23;91.13
65584;DHT22;62116;43.582;1.470;2023-04-25T07:20:20;15.24;91.06
65584;DHT22;62116;43.582;1.470;2023-04-25T07:22:46;15.21;91.11
65584;DHT22;62116;43.582;1.470;2023-04-25T07:25:11;15.24;90.87
65584;DHT22;62116;43.582;1.470;2023-04-25T07:27:36;15.17;90.74
65584;DHT22;62116;43.582;1.470;2023-04-25T07:30:02;15.10;90.73
65584;DHT22;62116;43.582;1.470;2023-04-25T07:32:29;15.03;90.57
65584;DHT22;62116;43.582;1.470;2023-04-25T07:34:55;14.94;90.25
65584;DHT22;62116;43.582;1.470;2023-04-25T07:37:20;14.86;89.92
65584;DHT22;62116;43.582;1.470;2023-04-25T07:39:45;14.84;90.34
65584;DHT22;62116;43.582;1.470;2023-04-25T07:42:12;14.83;90.09
65584;DHT22;62116;43.582;1.470;2023-04-25T07:44:37;14.84;90.29
65584;DHT22;62116;43.582;1.470;2023-04-25T07:47:07;14.83;89.80
65584;DHT22;62116;43.582;1.470;2023-04-25T07:49:36;14.83;90.02
65584;DHT22;62116;43.582;1.470;2023-04-25T07:52:03;14.84;90.20
65584;DHT22;62116;43.582;1.470;2023-04-25T07:54:29;14.84;90.07
65584;DHT22;62116;43.582;1.470;2023-04-25T07:56:55;14.87;90.11
65584;DHT22;62116;43.582;1.470;2023-04-25T07:59:20;14.88;90.33
65584;DHT22;62116;43.582;1.470;2023-04-25T08:01:46;14.86;90.03
65584;DHT22;62116;43.582;1.470;2023-04-25T08:04:12;14.81;89.90
65584;DHT22;62116;43.582;1.470;2023-04-25T08:06:37;14.81;90.04
65584;DHT22;62116;43.582;1.470;2023-04-25T08:09:03;14.80;89.86
65584;DHT22;62116;43.582;1.470;2023-04-25T08:11:29;14.73;89.93
65584;DHT22;62116;43.582;1.470;2023-04-25T08:13:55;14.77;90.14
65584;DHT22;62116;43.582;1.470;2023-04-25T08:16:20;14.79;89.88
65584;DHT22;62116;43.582;1.470;2023-04-25T08:18:46;14.79;89.93
65584;DHT22;62116;43.582;1.470;2023-04-25T08:21:11;14.74;89.68
65584;DHT22;62116;43.582;1.470;2023-04-25T08:23:38;14.72;89.40
65584;DHT22;62116;43.582;1.470;2023-04-25T08:26:03;14.72;89.57
65584;DHT22;62116;43.582;1.470;2023-04-25T08:28:30;14.69;88.81
65584;DHT22;62116;43.582;1.470;2023-04-25T08:30:55;14.70;89.47
65584;DHT22;62116;43.582;1.470;2023-04-25T08:33:20;14.77;89.36
65584;DHT22;62116;43.582;1.470;2023-04-25T08:35:46;14.77;89.46
65584;DHT22;62116;43.582;1.470;2023-04-25T08:38:11;14.83;89.28
65584;DHT22;62116;43.582;1.470;2023-04-25T08:40:38;14.84;89.12
65584;DHT22;62116;43.582;1.470;2023-04-25T08:43:04;14.77;88.18
65584;DHT22;62116;43.582;1.470;2023-04-25T08:45:31;14.70;88.11
65584;DHT22;62116;43.582;1.470;2023-04-25T08:47:57;14.69;88.49
65584;DHT22;62116;43.582;1.470;2023-04-25T08:50:24;14.69;88.81
65584;DHT22;62116;43.582;1.470;2023-04-25T08:52:53;14.69;88.69
65584;DHT22;62116;43.582;1.470;2023-04-25T08:55:20;14.69;88.88
65584;DHT22;62116;43.582;1.470;2023-04-25T08:57:46;14.73;89.07
65584;DHT22;62116;43.582;1.470;2023-04-25T09:00:12;14.70;88.70
65584;DHT22;62116;43.582;1.470;2023-04-25T09:02:42;14.63;87.97
65584;DHT22;62116;43.582;1.470;2023-04-25T09:05:09;14.63;88.58
65584;DHT22;62116;43.582;1.470;2023-04-25T09:07:37;14.69;88.84
65584;DHT22;62116;43.582;1.470;2023-04-25T09:10:03;14.70;88.99
65584;DHT22;62116;43.582;1.470;2023-04-25T09:12:29;14.72;89.05
65584;DHT22;62116;43.582;1.470;2023-04-25T09:15:03;14.76;89.16
65584;DHT22;62116;43.582;1.470;2023-04-25T09:17:29;14.83;89.18
65584;DHT22;62116;43.582;1.470;2023-04-25T09:19:55;14.86;89.11
65584;DHT22;62116;43.582;1.470;2023-04-25T09:22:20;14.90;89.01
65584;DHT22;62116;43.582;1.470;2023-04-25T09:24:48;14.88;88.31
65584;DHT22;62116;43.582;1.470;2023-04-25T09:27:19;14.90;88.73
65584;DHT22;62116;43.582;1.470;2023-04-25T09:29:45;14.81;87.87
65584;DHT22;62116;43.582;1.470;2023-04-25T09:34:42;14.81;88.46
65584;DHT22;62116;43.582;1.470;2023-04-25T09:37:09;14.80;88.40
65584;DHT22;62116;43.582;1.470;2023-04-25T09:39:37;14.76;88.25
65584;DHT22;62116;43.582;1.470;2023-04-25T09:42:03;14.80;88.33
65584;DHT22;62116;43.582;1.470;2023-04-25T09:44:29;14.79;88.43
65584;DHT22;62116;43.582;1.470;2023-04-25T09:46:54;14.79;88.23
65584;DHT22;62116;43.582;1.470;2023-04-25T09:49:20;14.67;87.81
65584;DHT22;62116;43.582;1.470;2023-04-25T09:51:56;14.63;88.09
65584;DHT22;62116;43.582;1.470;2023-04-25T09:54:23;14.64;88.55
65584;DHT22;62116;43.582;1.470;2023-04-25T09:56:51;14.63;88.28
65584;DHT22;62116;43.582;1.470;2023-04-25T09:59:21;14.66;88.76
65584;DHT22;62116;43.582;1.470;2023-04-25T10:01:49;14.67;88.91
65584;DHT22;62116;43.582;1.470;2023-04-25T10:04:24;14.69;88.87
65584;DHT22;62116;43.582;1.470;2023-04-25T10:06:52;14.70;88.87
65584;DHT22;62116;43.582;1.470;2023-04-25T10:09:25;14.74;88.99
65584;DHT22;62116;43.582;1.470;2023-04-25T10:11:51;14.76;88.98
65584;DHT22;62116;43.582;1.470;2023-04-25T10:14:18;14.79;88.92
65584;DHT22;62116;43.582;1.470;2023-04-25T10:16:45;14.76;88.84
65584;DHT22;62116;43.582;1.470;2023-04-25T10:19:10;14.77;89.01
65584;DHT22;62116;43.582;1.470;2023-04-25T10:21:46;14.84;89.11
65584;DHT22;62116;43.582;1.470;2023-04-25T10:24:14;14.88;89.08
65584;DHT22;62116;43.582;1.470;2023-04-25T10:26:40;14.86;88.72
65584;DHT22;62116;43.582;1.470;2023-04-25T10:29:05;14.91;88.71
65584;DHT22;62116;43.582;1.470;2023-04-25T10:31:31;15.00;88.35
65584;DHT22;62116;43.582;1.470;2023-04-25T10:33:56;15.07;88.41
65584;DHT22;62116;43.582;1.470;2023-04-25T10:36:23;15.11;88.48
65584;DHT22;62116;43.582;1.470;2023-04-25T10:38:50;15.12;88.61
65584;DHT22;62116;43.582;1.470;2023-04-25T10:41:18;15.17;88.41
65584;DHT22;62116;43.582;1.470;2023-04-25T10:43:45;15.17;88.22
65584;DHT22;62116;43.582;1.470;2023-04-25T10:46:22;15.20;88.46
65584;DHT22;62116;43.582;1.470;2023-04-25T10:48:55;15.21;88.22
65584;DHT22;62116;43.582;1.470;2023-04-25T10:51:23;15.18;87.87
65584;DHT22;62116;43.582;1.470;2023-04-25T10:56:22;15.20;88.46
65584;DHT22;62116;43.582;1.470;2023-04-25T10:58:48;15.24;88.37
65584;DHT22;62116;43.582;1.470;2023-04-25T11:01:24;15.28;88.31
65584;DHT22;62116;43.582;1.470;2023-04-25T11:03:57;15.30;88.22
65584;DHT22;62116;43.582;1.470;2023-04-25T11:06:36;15.27;88.11
65584;DHT22;62116;43.582;1.470;2023-04-25T11:09:03;15.24;88.04
65584;DHT22;62116;43.582;1.470;2023-04-25T11:11:36;15.28;88.13
65584;DHT22;62116;43.582;1.470;2023-04-25T11:14:02;15.38;88.39
65584;DHT22;62116;43.582;1.470;2023-04-25T11:16:27;15.44;88.13
65584;DHT22;62116;43.582;1.470;2023-04-25T11:18:53;15.42;87.44
65584;DHT22;62116;43.582;1.470;2023-04-25T11:21:18;15.47;87.43
65584;DHT22;62116;43.582;1.470;2023-04-25T11:23:46;15.51;87.48
65584;DHT22;62116;43.582;1.470;2023-04-25T11:26:13;15.54;87.27
65584;DHT22;62116;43.582;1.470;2023-04-25T11:28:39;15.55;86.99
65584;DHT22;62116;43.582;1.470;2023-04-25T11:31:04;15.58;87.05
65584;DHT22;62116;43.582;1.470;2023-04-25T11:33:30;15.54;86.21
65584;DHT22;62116;43.582;1.470;2023-04-25T11:35:56;15.61;86.47
65584;DHT22;62116;43.582;1.470;2023-04-25T11:38:22;15.61;86.52
65584;DHT22;62116;43.582;1.470;2023-04-25T11:40:52;15.66;86.08
65584;DHT22;62116;43.582;1.470;2023-04-25T11:43:20;15.59;85.78
65584;DHT22;62116;43.582;1.470;2023-04-25T11:45:47;15.57;86.27
65584;DHT22;62116;43.582;1.470;2023-04-25T11:48:13;15.57;86.09
65584;DHT22;62116;43.582;1.470;2023-04-25T11:50:41;15.57;85.57
65584;DHT22;62116;43.582;1.470;2023-04-25T11:53:07;15.57;86.01
65584;DHT22;62116;43.582;1.470;2023-04-25T11:55:34;15.63;86.33
65584;DHT22;62116;43.582;1.470;2023-04-25T11:58:00;15.68;86.64
65584;DHT22;62116;43.582;1.470;2023-04-25T12:00:25;15.68;86.27
65584;DHT22;62116;43.582;1.470;2023-04-25T12:02:55;15.69;86.32
65584;DHT22;62116;43.582;1.470;2023-04-25T12:05:30;15.72;85.86
65584;DHT22;62116;43.582;1.470;2023-04-25T12:07:58;15.71;86.17
65584;DHT22;62116;43.582;1.470;2023-04-25T12:10:39;15.68;85.79
65584;DHT22;62116;43.582;1.470;2023-04-25T12:13:19;15.69;85.69
65584;DHT22;62116;43.582;1.470;2023-04-25T12:15:45;15.72;85.24
65584;DHT22;62116;43.582;1.470;2023-04-25T12:18:11;15.72;85.00
65584;DHT22;62116;43.582;1.470;2023-04-25T12:20:36;15.77;84.77
65584;DHT22;62116;43.582;1.470;2023-04-25T12:23:05;15.77;84.64
65584;DHT22;62116;43.582;1.470;2023-04-25T12:25:35;15.65;85.33
65584;DHT22;62116;43.582;1.470;2023-04-25T12:28:22;15.73;85.53
65584;DHT22;62116;43.582;1.470;2023-04-25T12:31:03;15.85;85.92
65584;DHT22;62116;43.582;1.470;2023-04-25T12:33:31;15.93;85.42
65584;DHT22;62116;43.582;1.470;2023-04-25T12:35:57;15.93;85.53
65584;DHT22;62116;43.582;1.470;2023-04-25T12:38:28;15.95;84.91
65584;DHT22;62116;43.582;1.470;2023-04-25T12:40:57;15.92;84.73
65584;DHT22;62116;43.582;1.470;2023-04-25T12:43:23;15.89;84.92
65584;DHT22;62116;43.582;1.470;2023-04-25T12:45:52;15.91;85.06
65584;DHT22;62116;43.582;1.470;2023-04-25T12:48:19;15.91;85.76
65584;DHT22;62116;43.582;1.470;2023-04-25T12:50:48;15.93;86.15
65584;DHT22;62116;43.582;1.470;2023-04-25T12:53:15;15.98;86.24
65584;DHT22;62116;43.582;1.470;2023-04-25T12:55:41;15.96;86.05
65584;DHT22;62116;43.582;1.470;2023-04-25T12:58:06;15.92;85.64
65584;DHT22;62116;43.582;1.470;2023-04-25T13:00:32;15.81;84.97
65584;DHT22;62116;43.582;1.470;2023-04-25T13:02:58;15.78;85.25
65584;DHT22;62116;43.582;1.470;2023-04-25T13:05:23;15.83;85.93
65584;DHT22;62116;43.582;1.470;2023-04-25T13:07:49;15.85;86.07
65584;DHT22;62116;43.582;1.470;2023-04-25T13:10:14;15.86;86.10
65584;DHT22;62116;43.582;1.470;2023-04-25T13:12:40;15.83;86.47
65584;DHT22;62116;43.582;1.470;2023-04-25T13:15:05;15.79;86.47
65584;DHT22;62116;43.582;1.470;2023-04-25T13:17:32;15.78;86.81
65584;DHT22;62116;43.582;1.470;2023-04-25T13:19:57;15.68;86.84
65584;DHT22;62116;43.582;1.470;2023-04-25T13:22:22;15.69;87.26
65584;DHT22;62116;43.582;1.470;2023-04-25T13:24:48;15.73;87.48
65584;DHT22;62116;43.582;1.470;2023-04-25T13:27:13;15.78;87.79
65584;DHT22;62116;43.582;1.470;2023-04-25T13:29:39;15.79;87.79
65584;DHT22;62116;43.582;1.470;2023-04-25T13:32:06;15.77;87.70
65584;DHT22;62116;43.582;1.470;2023-04-25T13:34:31;15.71;87.35
65584;DHT22;62116;43.582;1.470;2023-04-25T13:36:57;15.71;87.58
65584;DHT22;62116;43.582;1.470;2023-04-25T13:39:22;15.73;87.91
65584;DHT22;62116;43.582;1.470;2023-04-25T13:41:48;15.82;88.13
65584;DHT22;62116;43.582;1.470;2023-04-25T13:44:13;15.91;88.19
65584;DHT22;62116;43.582;1.470;2023-04-25T13:46:38;15.95;88.21
65584;DHT22;62116;43.582;1.470;2023-04-25T13:49:04;15.95;87.54
65584;DHT22;62116;43.582;1.470;2023-04-25T13:51:30;15.96;87.94
65584;DHT22;62116;43.582;1.470;2023-04-25T13:53:56;16.03;87.87
65584;DHT22;62116;43.582;1.470;2023-04-25T13:56:21;16.10;87.69
65584;DHT22;62116;43.582;1.470;2023-04-25T13:58:48;16.16;87.35
65584;DHT22;62116;43.582;1.470;2023-04-25T14:01:14;16.23;87.01
65584;DHT22;62116;43.582;1.470;2023-04-25T14:03:39;16.32;86.86
65584;DHT22;62116;43.582;1.470;2023-04-25T14:06:06;16.36;86.63
65584;DHT22;62116;43.582;1.470;2023-04-25T14:08:32;16.30;86.19
65584;DHT22;62116;43.582;1.470;2023-04-25T14:10:57;16.23;86.05
65584;DHT22;62116;43.582;1.470;2023-04-25T14:13:22;16.14;85.88
65584;DHT22;62116;43.582;1.470;2023-04-25T14:15:49;16.06;85.50
65584;DHT22;62116;43.582;1.470;2023-04-25T14:18:15;16.02;85.99
65584;DHT22;62116;43.582;1.470;2023-04-25T14:20:41;15.99;86.22
65584;DHT22;62116;43.582;1.470;2023-04-25T14:23:06;15.95;86.38
65584;DHT22;62116;43.582;1.470;2023-04-25T14:25:32;15.93;86.52
65584;DHT22;62116;43.582;1.470;2023-04-25T14:27:57;15.86;86.45
65584;DHT22;62116;43.582;1.470;2023-04-25T14:30:23;15.88;86.59
65584;DHT22;62116;43.582;1.470;2023-04-25T14:32:49;15.88;86.51
65584;DHT22;62116;43.582;1.470;2023-04-25T14:35:14;15.88;86.23
65584;DHT22;62116;43.582;1.470;2023-04-25T14:37:40;15.91;86.57
65584;DHT22;62116;43.582;1.470;2023-04-25T14:40:06;15.92;86.25
65584;DHT22;62116;43.582;1.470;2023-04-25T14:42:35;15.88;86.35
65584;DHT22;62116;43.582;1.470;2023-04-25T14:45:01;15.83;86.53
65584;DHT22;62116;43.582;1.470;2023-04-25T14:47:27;15.88;86.84
65584;DHT22;62116;43.582;1.470;2023-04-25T14:49:52;15.91;86.83
65584;DHT22;62116;43.582;1.470;2023-04-25T14:52:20;15.96;86.95
65584;DHT22;62116;43.582;1.470;2023-04-25T14:54:46;15.85;85.90
65584;DHT22;62116;43.582;1.470;2023-04-25T14:57:12;15.69;85.66
65584;DHT22;62116;43.582;1.470;2023-04-25T14:59:37;15.75;86.32
65584;DHT22;62116;43.582;1.470;2023-04-25T15:02:03;15.78;86.27
65584;DHT22;62116;43.582;1.470;2023-04-25T15:04:28;15.81;85.71
65584;DHT22;62116;43.582;1.470;2023-04-25T15:06:53;15.75;85.22
65584;DHT22;62116;43.582;1.470;2023-04-25T15:09:19;15.73;85.46
65584;DHT22;62116;43.582;1.470;2023-04-25T15:11:44;15.72;85.16
65584;DHT22;62116;43.582;1.470;2023-04-25T15:14:10;15.62;84.74
65584;DHT22;62116;43.582;1.470;2023-04-25T15:16:36;15.58;84.90
65584;DHT22;62116;43.582;1.470;2023-04-25T15:19:01;15.54;85.25
65584;DHT22;62116;43.582;1.470;2023-04-25T15:21:30;15.57;85.31
65584;DHT22;62116;43.582;1.470;2023-04-25T15:23:56;15.52;85.06
65584;DHT22;62116;43.582;1.470;2023-04-25T15:26:21;15.49;85.11
65584;DHT22;62116;43.582;1.470;2023-04-25T15:28:47;15.51;84.35